createdAt,value
2023-05-06T00:01:54.074Z,5.10
2023-05-06T00:04:23.644Z,5.40
2023-05-06T00:06:51.392Z,5.87
2023-05-06T00:09:19.057Z,6.13
2023-05-06T00:11:47.539Z,5.40
2023-05-06T00:14:15.247Z,5.43
2023-05-06T00:16:43.008Z,5.53
2023-05-06T00:19:10.895Z,5.23
2023-05-06T00:21:39.940Z,6.10
2023-05-06T00:24:07.981Z,5.63
2023-05-06T00:26:35.708Z,5.33
2023-05-06T00:29:03.331Z,5.00
2023-05-06T00:31:31.011Z,5.30
2023-05-06T00:33:58.665Z,5.67
2023-05-06T00:36:26.407Z,6.03
2023-05-06T00:38:55.461Z,5.60
2023-05-06T00:41:23.085Z,5.80
2023-05-06T00:43:50.749Z,5.43
2023-05-06T00:46:18.642Z,5.93
2023-05-06T00:48:46.558Z,5.80
2023-05-06T00:51:15.414Z,5.37
2023-05-06T00:53:43.142Z,5.13
2023-05-06T00:56:12.469Z,6.00
2023-05-06T00:58:40.477Z,5.70
2023-05-06T01:01:08.304Z,6.03
2023-05-06T01:03:36.206Z,6.67
2023-05-06T01:06:13.019Z,5.53
2023-05-06T01:08:48.054Z,5.93
2023-05-06T01:11:24.557Z,6.03
2023-05-06T01:14:00.141Z,6.17
2023-05-06T01:16:30.826Z,6.17
2023-05-06T01:19:00.595Z,5.93
2023-05-06T01:21:34.631Z,6.40
2023-05-06T01:24:03.698Z,6.20
2023-05-06T01:26:31.529Z,6.37
2023-05-06T01:29:01.934Z,5.93
2023-05-06T01:31:36.503Z,5.83
2023-05-06T01:34:14.356Z,6.20
2023-05-06T01:36:48.596Z,6.00
2023-05-06T01:39:19.753Z,5.83
2023-05-06T01:41:49.910Z,6.83
2023-05-06T01:44:18.402Z,6.40
2023-05-06T01:46:46.476Z,6.37
2023-05-06T01:49:18.001Z,6.67
2023-05-06T01:51:48.895Z,8.20
2023-05-06T01:54:18.465Z,7.63
2023-05-06T01:56:46.519Z,7.00
2023-05-06T01:59:14.239Z,6.57
2023-05-06T02:01:41.945Z,6.93
2023-05-06T02:04:09.591Z,7.73
2023-05-06T02:06:37.362Z,7.53
2023-05-06T02:09:05.272Z,7.07
2023-05-06T02:11:34.233Z,7.43
2023-05-06T02:14:02.163Z,8.63
2023-05-06T02:16:30.187Z,6.67
2023-05-06T02:18:57.912Z,7.30
2023-05-06T02:21:25.570Z,7.47
2023-05-06T02:23:53.188Z,7.50
2023-05-06T02:26:20.905Z,8.00
2023-05-06T02:28:50.057Z,7.60
2023-05-06T02:31:18.101Z,8.57
2023-05-06T02:33:46.592Z,8.10
2023-05-06T02:36:14.260Z,7.50
2023-05-06T02:38:41.904Z,8.73
2023-05-06T02:41:10.542Z,7.67
2023-05-06T02:43:38.390Z,7.57
2023-05-06T02:46:07.639Z,8.07
2023-05-06T02:48:35.380Z,7.07
2023-05-06T02:51:03.640Z,7.10
2023-05-06T02:53:31.322Z,8.67
2023-05-06T02:55:58.959Z,7.97
2023-05-06T02:58:26.682Z,8.40
2023-05-06T03:00:54.320Z,7.93
2023-05-06T03:03:23.932Z,9.40
2023-05-06T03:05:51.564Z,8.57
2023-05-06T03:08:19.272Z,8.60
2023-05-06T03:10:46.910Z,8.30
2023-05-06T03:13:14.743Z,8.70
2023-05-06T03:15:42.499Z,8.67
2023-05-06T03:18:10.303Z,8.90
2023-05-06T03:20:39.365Z,10.43
2023-05-06T03:23:07.016Z,8.57
2023-05-06T03:25:35.151Z,8.73
2023-05-06T03:28:02.844Z,9.27
2023-05-06T03:30:30.508Z,8.90
2023-05-06T03:32:58.934Z,9.80
2023-05-06T03:35:26.701Z,9.43
2023-05-06T03:37:55.802Z,9.33
2023-05-06T03:40:23.524Z,9.67
2023-05-06T03:42:51.158Z,8.83
2023-05-06T03:45:18.875Z,9.67
2023-05-06T03:47:46.843Z,8.77
2023-05-06T03:50:15.316Z,9.90
2023-05-06T03:52:43.324Z,9.53
2023-05-06T03:55:12.732Z,9.23
2023-05-06T03:57:40.661Z,9.57
2023-05-06T04:00:09.844Z,9.93
2023-05-06T04:02:38.171Z,9.87
2023-05-06T04:05:07.723Z,9.33
2023-05-06T04:07:35.905Z,10.20
2023-05-06T04:10:03.571Z,10.20
2023-05-06T04:12:32.655Z,10.73
2023-05-06T04:15:00.336Z,11.07
2023-05-06T04:17:27.983Z,10.63
2023-05-06T04:19:55.965Z,9.90
2023-05-06T04:22:23.587Z,9.90
2023-05-06T04:24:51.823Z,10.83
2023-05-06T04:27:19.425Z,9.80
2023-05-06T04:29:48.433Z,11.60
2023-05-06T04:32:18.029Z,10.70
2023-05-06T04:34:47.323Z,9.90
2023-05-06T04:37:15.284Z,9.57
2023-05-06T04:39:47.205Z,10.83
2023-05-06T04:42:15.032Z,10.97
2023-05-06T04:44:43.184Z,11.43
2023-05-06T04:47:12.198Z,11.00
2023-05-06T04:49:40.600Z,10.47
2023-05-06T04:52:08.351Z,11.43
2023-05-06T04:54:36.574Z,11.73
2023-05-06T04:57:04.253Z,10.90
2023-05-06T04:59:31.852Z,11.10
2023-05-06T05:01:59.523Z,10.50
2023-05-06T05:04:28.695Z,10.70
2023-05-06T05:06:56.327Z,11.47
2023-05-06T05:09:23.974Z,10.87
2023-05-06T05:11:51.689Z,11.00
2023-05-06T05:14:19.369Z,10.77
2023-05-06T05:16:47.089Z,12.00
2023-05-06T05:19:14.768Z,11.40
2023-05-06T05:21:43.780Z,10.67
2023-05-06T05:24:11.423Z,10.93
2023-05-06T05:26:39.214Z,10.70
2023-05-06T05:29:07.368Z,10.43
2023-05-06T05:31:35.378Z,9.73
2023-05-06T05:34:03.072Z,10.67
2023-05-06T05:36:30.725Z,10.00
2023-05-06T05:38:59.721Z,10.63
2023-05-06T05:41:27.428Z,10.60
2023-05-06T05:43:55.046Z,11.37
2023-05-06T05:46:22.798Z,10.70
2023-05-06T05:48:50.569Z,10.43
2023-05-06T05:51:20.434Z,10.20
2023-05-06T05:53:48.261Z,10.97
2023-05-06T05:56:17.273Z,9.97
2023-05-06T05:58:44.960Z,10.67
2023-05-06T06:01:12.586Z,10.73
2023-05-06T06:03:40.407Z,10.63
2023-05-06T06:06:09.286Z,9.87
2023-05-06T06:08:37.385Z,10.50
2023-05-06T06:11:06.136Z,10.57
2023-05-06T06:13:35.225Z,11.17
2023-05-06T06:16:03.025Z,11.07
2023-05-06T06:18:30.810Z,10.67
2023-05-06T06:20:58.659Z,9.70
2023-05-06T06:23:26.388Z,10.03
2023-05-06T06:25:54.067Z,11.13
2023-05-06T06:28:22.264Z,11.47
2023-05-06T06:30:51.364Z,10.23
2023-05-06T06:33:19.003Z,10.87
2023-05-06T06:35:46.638Z,10.97
2023-05-06T06:38:14.261Z,10.00
2023-05-06T06:40:41.868Z,11.17
2023-05-06T06:43:09.469Z,11.50
2023-05-06T06:45:37.154Z,10.83
2023-05-06T06:48:06.683Z,10.93
2023-05-06T06:50:34.378Z,10.43
2023-05-06T06:53:04.230Z,11.30
2023-05-06T06:55:33.236Z,10.97
2023-05-06T06:58:00.876Z,11.30
2023-05-06T07:00:28.536Z,11.20
2023-05-06T07:02:56.236Z,10.53
2023-05-06T07:05:27.440Z,11.03
2023-05-06T07:07:55.440Z,10.67
2023-05-06T07:10:23.765Z,10.47
2023-05-06T07:12:51.834Z,11.57
2023-05-06T07:15:19.712Z,11.00
2023-05-06T07:17:50.320Z,11.13
2023-05-06T07:20:20.268Z,11.53
2023-05-06T07:22:49.272Z,10.60
2023-05-06T07:25:16.951Z,10.47
2023-05-06T07:27:44.629Z,11.03
2023-05-06T07:30:12.832Z,10.77
2023-05-06T07:32:41.196Z,12.03
2023-05-06T07:35:10.251Z,12.00
2023-05-06T07:37:38.156Z,12.00
2023-05-06T07:40:08.621Z,11.13
2023-05-06T07:42:36.228Z,12.23
2023-05-06T07:45:04.003Z,11.93
2023-05-06T07:47:33.370Z,11.20
2023-05-06T07:50:01.084Z,12.27
2023-05-06T07:52:28.912Z,11.37
2023-05-06T07:54:56.741Z,10.43
2023-05-06T07:57:25.918Z,11.00
2023-05-06T07:59:53.963Z,11.33
2023-05-06T08:02:21.777Z,10.70
2023-05-06T08:04:51.639Z,10.87
2023-05-06T08:07:19.903Z,11.80
2023-05-06T08:09:47.714Z,11.50
2023-05-06T08:12:15.841Z,11.97
2023-05-06T08:14:44.871Z,11.40
2023-05-06T08:17:14.020Z,11.43
2023-05-06T08:19:41.741Z,11.60
2023-05-06T08:22:09.426Z,11.77
2023-05-06T08:24:37.147Z,10.87
2023-05-06T08:27:04.960Z,11.13
2023-05-06T08:29:32.595Z,11.30
2023-05-06T08:32:01.723Z,12.03
2023-05-06T08:34:29.398Z,11.23
2023-05-06T08:36:57.083Z,12.97
2023-05-06T08:39:24.766Z,12.17
2023-05-06T08:41:55.424Z,11.97
2023-05-06T08:44:25.635Z,11.93
2023-05-06T08:46:53.610Z,11.83
2023-05-06T08:49:22.778Z,12.20
2023-05-06T08:51:52.533Z,12.10
2023-05-06T08:54:20.433Z,12.83
2023-05-06T08:56:53.818Z,12.00
2023-05-06T08:59:24.954Z,12.23
2023-05-06T09:01:53.149Z,12.00
2023-05-06T09:04:22.537Z,12.07
2023-05-06T09:06:50.130Z,12.23
2023-05-06T09:09:18.087Z,12.63
2023-05-06T09:11:45.938Z,12.20
2023-05-06T09:14:15.656Z,11.63
2023-05-06T09:16:44.599Z,12.43
2023-05-06T09:19:12.787Z,10.83
2023-05-06T09:21:43.204Z,11.03
2023-05-06T09:24:11.974Z,11.40
2023-05-06T09:26:41.694Z,10.97
2023-05-06T09:29:09.832Z,12.07
2023-05-06T09:31:42.572Z,11.70
2023-05-06T09:34:11.644Z,14.30
2023-05-06T09:36:41.308Z,13.97
2023-05-06T09:39:09.854Z,12.73
2023-05-06T09:41:37.634Z,12.67
2023-05-06T09:44:06.208Z,14.33
2023-05-06T09:46:34.356Z,15.13
2023-05-06T09:49:02.302Z,13.60
2023-05-06T09:51:32.586Z,13.33
2023-05-06T09:54:02.043Z,13.00
2023-05-06T09:56:31.484Z,14.93
2023-05-06T09:59:01.222Z,15.07
2023-05-06T10:01:36.560Z,13.90
2023-05-06T10:04:09.270Z,13.93
2023-05-06T10:06:39.402Z,12.83
2023-05-06T10:09:09.277Z,14.83
2023-05-06T10:11:38.139Z,15.93
2023-05-06T10:14:07.148Z,14.17
2023-05-06T10:16:35.750Z,12.90
2023-05-06T10:19:05.938Z,13.73
2023-05-06T10:21:37.079Z,15.07
2023-05-06T10:24:09.270Z,15.77
2023-05-06T10:26:38.885Z,15.43
2023-05-06T10:29:10.299Z,14.10
2023-05-06T10:31:45.318Z,12.90
2023-05-06T10:34:13.577Z,13.83
2023-05-06T10:36:44.557Z,14.20
2023-05-06T10:39:14.586Z,13.67
2023-05-06T10:41:42.539Z,13.07
2023-05-06T10:44:10.290Z,12.47
2023-05-06T10:46:59.825Z,12.43
2023-05-06T10:49:28.011Z,14.03
2023-05-06T10:52:11.954Z,13.40
2023-05-06T10:54:50.737Z,13.63
2023-05-06T10:57:20.700Z,14.87
2023-05-06T10:59:49.739Z,14.07
2023-05-06T11:02:19.874Z,12.80
2023-05-06T11:04:52.587Z,13.10
2023-05-06T11:07:24.930Z,13.90
2023-05-06T11:09:58.413Z,12.10
2023-05-06T11:12:47.262Z,13.53
2023-05-06T11:15:24.835Z,14.90
2023-05-06T11:17:54.098Z,14.20
2023-05-06T11:20:23.306Z,14.00
2023-05-06T11:22:51.211Z,14.10
2023-05-06T11:25:42.664Z,13.77
2023-05-06T11:28:12.555Z,14.17
2023-05-06T11:30:42.713Z,12.67
2023-05-06T11:33:18.169Z,13.40
2023-05-06T11:35:46.559Z,14.17
2023-05-06T11:38:14.281Z,16.80
2023-05-06T11:40:43.885Z,17.60
2023-05-06T11:43:12.642Z,17.23
2023-05-06T11:45:44.621Z,15.90
2023-05-06T11:48:13.266Z,14.83
2023-05-06T11:50:45.537Z,17.70
2023-05-06T11:53:13.343Z,16.33
2023-05-06T11:55:41.429Z,14.87
2023-05-06T11:58:16.597Z,14.70
2023-05-06T12:00:51.416Z,13.97
2023-05-06T12:03:19.630Z,14.83
2023-05-06T12:05:48.725Z,16.57
2023-05-06T12:08:26.738Z,22.70
2023-05-06T12:10:56.909Z,17.33
2023-05-06T12:13:26.137Z,14.37
2023-05-06T12:15:55.883Z,13.87
2023-05-06T12:18:24.443Z,13.23
2023-05-06T12:20:54.636Z,13.87
2023-05-06T12:23:22.736Z,13.27
2023-05-06T12:26:02.299Z,17.87
2023-05-06T12:28:32.101Z,19.53
2023-05-06T12:30:59.739Z,16.37
2023-05-06T12:33:27.519Z,15.67
2023-05-06T12:35:58.199Z,12.40
2023-05-06T12:38:25.987Z,14.10
2023-05-06T12:40:55.473Z,15.93
2023-05-06T12:43:32.277Z,15.23
2023-05-06T12:46:07.294Z,14.00
2023-05-06T12:48:35.416Z,13.73
2023-05-06T12:51:18.816Z,15.10
2023-05-06T12:53:46.523Z,13.93
2023-05-06T12:56:14.311Z,13.17
2023-05-06T12:58:43.346Z,15.40
2023-05-06T13:01:11.046Z,17.67
2023-05-06T13:03:40.780Z,14.90
2023-05-06T13:06:08.917Z,12.63
2023-05-06T13:08:36.489Z,14.23
2023-05-06T13:11:04.102Z,16.13
2023-05-06T13:13:31.727Z,15.07
2023-05-06T13:16:01.511Z,14.97
2023-05-06T13:18:30.240Z,14.67
2023-05-06T13:21:00.134Z,13.40
2023-05-06T13:23:27.978Z,14.03
2023-05-06T13:26:04.206Z,14.43
2023-05-06T13:28:35.372Z,13.07
2023-05-06T13:31:04.895Z,12.83
2023-05-06T13:33:32.629Z,13.03
2023-05-06T13:36:00.319Z,13.33
2023-05-06T13:38:27.994Z,13.07
2023-05-06T13:40:55.828Z,13.17
2023-05-06T13:43:25.536Z,12.87
2023-05-06T13:45:53.907Z,12.30
2023-05-06T13:48:22.939Z,12.43
2023-05-06T13:50:50.790Z,13.97
2023-05-06T13:53:18.428Z,13.60
2023-05-06T13:55:46.924Z,14.50
2023-05-06T13:58:14.575Z,12.73
2023-05-06T14:00:42.211Z,17.47
2023-05-06T14:03:09.870Z,15.57
2023-05-06T14:05:38.888Z,16.30
2023-05-06T14:08:08.260Z,16.43
2023-05-06T14:10:36.043Z,16.17
2023-05-06T14:13:05.534Z,15.97
2023-05-06T14:15:34.636Z,12.90
2023-05-06T14:18:02.453Z,13.37
2023-05-06T14:20:30.178Z,13.77
2023-05-06T14:22:59.209Z,12.37
2023-05-06T14:25:27.988Z,13.63
2023-05-06T14:27:55.921Z,13.33
2023-05-06T14:30:23.750Z,15.47
2023-05-06T14:32:51.447Z,14.60
2023-05-06T14:35:19.662Z,14.73
2023-05-06T14:37:47.537Z,14.90
2023-05-06T14:40:17.953Z,12.97
2023-05-06T14:42:46.180Z,12.63
2023-05-06T14:45:15.701Z,13.20
2023-05-06T14:47:43.614Z,12.67
2023-05-06T14:50:12.169Z,11.30
2023-05-06T14:52:40.796Z,11.53
2023-05-06T14:55:11.819Z,11.40
2023-05-06T14:57:41.126Z,12.20
2023-05-06T15:00:10.179Z,13.17
2023-05-06T15:02:40.525Z,12.47
2023-05-06T15:05:10.043Z,13.90
2023-05-06T15:07:37.988Z,12.63
2023-05-06T15:10:06.407Z,12.40
2023-05-06T15:12:34.709Z,11.97
2023-05-06T15:15:05.135Z,10.60
2023-05-06T15:17:33.471Z,11.40
2023-05-06T15:20:01.196Z,10.57
2023-05-06T15:22:28.913Z,10.90
2023-05-06T15:24:56.520Z,11.80
2023-05-06T15:27:24.194Z,12.30
2023-05-06T15:29:51.801Z,13.17
2023-05-06T15:32:20.891Z,12.13
2023-05-06T15:34:48.523Z,51.53
2023-05-06T15:37:19.180Z,13.80
2023-05-06T15:39:47.794Z,19.20
2023-05-06T15:42:16.893Z,15.97
2023-05-06T15:44:44.681Z,14.00
2023-05-06T15:47:12.381Z,14.70
2023-05-06T15:52:12.313Z,13.03
2023-05-06T15:54:40.989Z,12.37
2023-05-06T15:57:09.603Z,11.50
2023-05-06T15:59:37.345Z,11.00
2023-05-06T16:04:35.660Z,11.20
2023-05-06T16:07:04.768Z,11.33
2023-05-06T16:09:32.578Z,10.57
2023-05-06T16:12:00.196Z,10.60
2023-05-06T16:14:27.812Z,10.70
2023-05-06T16:16:55.453Z,10.33
2023-05-06T16:19:23.251Z,9.80
2023-05-06T16:21:51.019Z,10.43
2023-05-06T16:24:20.034Z,9.83
2023-05-06T16:26:47.688Z,10.77
2023-05-06T16:29:15.688Z,10.90
2023-05-06T16:31:43.371Z,10.87
2023-05-06T16:34:11.077Z,10.40
2023-05-06T16:36:38.828Z,11.03
2023-05-06T16:39:06.951Z,12.33
2023-05-06T16:41:36.041Z,12.40
2023-05-06T16:44:04.163Z,13.63
2023-05-06T16:46:33.339Z,13.63
2023-05-06T16:49:03.536Z,13.83
2023-05-06T16:51:31.418Z,15.80
2023-05-06T16:53:59.149Z,13.43
2023-05-06T16:56:32.986Z,11.83
2023-05-06T16:59:09.551Z,15.23
2023-05-06T17:01:37.132Z,14.50
2023-05-06T17:04:04.931Z,13.77
2023-05-06T17:06:33.016Z,15.20
2023-05-06T17:09:00.676Z,15.70
2023-05-06T17:11:28.385Z,16.63
2023-05-06T17:13:56.027Z,16.70
2023-05-06T17:16:25.062Z,15.70
2023-05-06T17:18:52.697Z,15.80
2023-05-06T17:21:21.422Z,15.37
2023-05-06T17:23:50.583Z,15.20
2023-05-06T17:26:18.457Z,16.77
2023-05-06T17:28:46.927Z,16.13
2023-05-06T17:31:15.869Z,16.33
2023-05-06T17:33:45.241Z,16.83
2023-05-06T17:36:13.662Z,15.70
2023-05-06T17:38:41.282Z,16.20
2023-05-06T17:41:09.016Z,16.20
2023-05-06T17:43:36.666Z,17.13
2023-05-06T17:46:04.451Z,16.90
2023-05-06T17:48:32.081Z,17.77
2023-05-06T17:51:03.159Z,16.67
2023-05-06T17:53:32.266Z,16.43
2023-05-06T17:55:59.983Z,16.77
2023-05-06T17:58:27.586Z,17.67
2023-05-06T18:00:55.247Z,16.67
2023-05-06T18:03:23.712Z,17.00
2023-05-06T18:05:51.487Z,16.70
2023-05-06T18:08:20.518Z,17.17
2023-05-06T18:10:48.163Z,17.23
2023-05-06T18:13:16.082Z,17.73
2023-05-06T18:15:44.035Z,17.00
2023-05-06T18:18:11.691Z,16.50
2023-05-06T18:20:39.847Z,17.70
2023-05-06T18:23:09.113Z,17.70
2023-05-06T18:25:38.083Z,17.37
2023-05-06T18:28:05.937Z,17.73
2023-05-06T18:30:33.575Z,17.80
2023-05-06T18:33:01.218Z,17.53
2023-05-06T18:35:28.924Z,17.57
2023-05-06T18:37:56.532Z,19.00
2023-05-06T18:40:24.239Z,17.93
2023-05-06T18:42:53.226Z,18.77
2023-05-06T18:45:21.443Z,19.17
2023-05-06T18:47:49.081Z,19.53
2023-05-06T18:50:16.710Z,20.03
2023-05-06T18:52:44.365Z,19.17
2023-05-06T18:55:12.225Z,19.37
2023-05-06T18:57:40.064Z,18.97
2023-05-06T19:00:10.898Z,20.63
2023-05-06T19:02:38.671Z,20.27
2023-05-06T19:05:07.684Z,20.17
2023-05-06T19:07:35.609Z,20.20
2023-05-06T19:10:03.264Z,20.40
2023-05-06T19:12:31.090Z,19.27
2023-05-06T19:14:58.704Z,19.40
2023-05-06T19:17:28.536Z,18.20
2023-05-06T19:19:56.115Z,19.10
2023-05-06T19:22:24.129Z,19.53
2023-05-06T19:24:52.720Z,20.90
2023-05-06T19:27:20.348Z,19.63
2023-05-06T19:29:48.231Z,19.03
2023-05-06T19:32:15.849Z,18.33
2023-05-06T19:34:44.799Z,18.60
2023-05-06T19:37:12.407Z,18.33
2023-05-06T19:39:40.020Z,19.60
2023-05-06T19:42:08.524Z,17.70
2023-05-06T19:44:36.209Z,17.27
2023-05-06T19:47:03.818Z,16.90
2023-05-06T19:49:32.495Z,16.33
2023-05-06T19:52:01.761Z,16.43
2023-05-06T19:54:29.432Z,16.10
2023-05-06T19:56:57.023Z,15.97
2023-05-06T19:59:24.766Z,15.20
2023-05-06T20:01:53.215Z,14.87
2023-05-06T20:04:20.998Z,15.53
2023-05-06T20:06:48.648Z,15.07
2023-05-06T20:09:17.580Z,14.50
2023-05-06T20:11:47.080Z,14.83
2023-05-06T20:14:14.853Z,14.33
2023-05-06T20:16:42.552Z,13.63
2023-05-06T20:19:11.261Z,13.67
2023-05-06T20:21:40.186Z,13.30
2023-05-06T20:24:08.053Z,13.77
2023-05-06T20:26:37.024Z,13.03
2023-05-06T20:29:04.676Z,13.53
2023-05-06T20:31:32.337Z,14.53
2023-05-06T20:34:00.024Z,13.47
2023-05-06T20:36:28.075Z,15.07
2023-05-06T20:38:55.668Z,14.57
2023-05-06T20:41:23.307Z,14.70
2023-05-06T20:43:53.979Z,15.10
2023-05-06T20:46:21.820Z,14.73
2023-05-06T20:48:51.384Z,14.83
2023-05-06T20:51:19.466Z,14.37
2023-05-06T20:53:47.481Z,14.60
2023-05-06T20:56:19.122Z,14.07
2023-05-06T20:58:46.762Z,13.77
2023-05-06T21:01:15.978Z,13.63
2023-05-06T21:03:43.768Z,14.47
2023-05-06T21:06:11.446Z,14.57
2023-05-06T21:08:39.113Z,14.50
2023-05-06T21:11:06.738Z,15.10
2023-05-06T21:13:34.344Z,15.20
2023-05-06T21:16:01.972Z,15.27
2023-05-06T21:18:31.064Z,14.53
2023-05-06T21:20:59.563Z,15.10
2023-05-06T21:23:27.275Z,14.80
2023-05-06T21:25:54.914Z,14.90
2023-05-06T21:28:22.565Z,14.80
2023-05-06T21:30:50.270Z,14.47
2023-05-06T21:33:17.878Z,13.53
2023-05-06T21:35:46.826Z,15.23
2023-05-06T21:38:14.495Z,14.47
2023-05-06T21:40:42.122Z,13.97
2023-05-06T21:43:09.770Z,15.03
2023-05-06T21:45:37.524Z,14.00
2023-05-06T21:48:05.376Z,14.47
2023-05-06T21:50:33.670Z,13.47
2023-05-06T21:53:03.576Z,13.50
2023-05-06T21:55:31.366Z,12.37
2023-05-06T21:57:58.990Z,13.67
2023-05-06T22:00:26.703Z,13.50
2023-05-06T22:02:54.455Z,13.17
2023-05-06T22:05:22.500Z,13.07
2023-05-06T22:07:50.855Z,12.63
2023-05-06T22:10:19.896Z,13.33
2023-05-06T22:12:47.610Z,12.87
2023-05-06T22:15:15.593Z,13.10
2023-05-06T22:17:43.422Z,13.40
2023-05-06T22:20:11.968Z,12.87
2023-05-06T22:22:39.685Z,13.43
2023-05-06T22:25:08.595Z,13.47
2023-05-06T22:27:38.024Z,12.30
2023-05-06T22:30:06.245Z,12.43
2023-05-06T22:32:33.899Z,12.33
2023-05-06T22:35:01.717Z,12.00
2023-05-06T22:37:29.417Z,11.60
2023-05-06T22:39:57.161Z,11.83
2023-05-06T22:42:25.134Z,12.63
2023-05-06T22:44:54.095Z,11.87
2023-05-06T22:47:21.735Z,12.10
2023-05-06T22:49:49.409Z,11.80
2023-05-06T22:52:18.976Z,11.20
2023-05-06T22:54:46.671Z,12.47
2023-05-06T22:57:14.807Z,12.80
2023-05-06T22:59:42.401Z,13.07
2023-05-06T23:02:11.834Z,12.47
2023-05-06T23:04:40.315Z,12.80
2023-05-06T23:07:07.954Z,12.07
2023-05-06T23:09:35.619Z,13.37
2023-05-06T23:12:03.669Z,12.23
2023-05-06T23:14:31.373Z,12.17
2023-05-06T23:16:59.216Z,11.73
2023-05-06T23:19:28.320Z,12.97
2023-05-06T23:21:56.480Z,12.77
2023-05-06T23:24:24.141Z,13.30
2023-05-06T23:26:51.984Z,15.23
2023-05-06T23:29:19.761Z,14.23
2023-05-06T23:31:47.447Z,12.50
2023-05-06T23:34:15.066Z,13.57
2023-05-06T23:36:44.031Z,14.03
2023-05-06T23:39:12.176Z,14.20
2023-05-06T23:41:39.883Z,14.17
2023-05-06T23:44:07.539Z,13.90
2023-05-06T23:46:35.270Z,12.53
2023-05-06T23:49:03.105Z,13.57
2023-05-06T23:51:31.682Z,13.00
2023-05-06T23:54:00.664Z,13.97
2023-05-06T23:56:28.496Z,14.20
2023-05-06T23:58:56.130Z,13.93
